Time;durP1;ratioP1;P1;durP2;ratioP2;P2;SDS_P1;SDS_P2;PMS_P1;PMS_P2;Temp;Humidity;BMP_temperature;BMP_pressure;BME280_temperature;BME280_humidity;BME280_pressure;Samples;Min_cycle;Max_cycle;Signal;HPM_P1;HPM_P2
2022/12/15 00:38:49;;;;;;;0.00;0.00;;;;;;;;;;5113089;28;20043;-68
2022/12/15 00:41:16;;;;;;;0.07;0.07;;;;;;;;;;5112478;28;20023;-68
2022/12/15 00:43:43;;;;;;;0.03;0.03;;;;;;;;;;5112055;28;20020;-69
2022/12/15 00:48:55;;;;;;;0.03;0.03;;;;;;;;;;5113327;28;20513;-69
2022/12/15 00:51:21;;;;;;;0.00;0.00;;;;;;;;;;5099382;28;20094;-68
2022/12/15 01:21:19;;;;;;;0.10;0.10;;;;;;;;;;5090338;28;20035;-67
2022/12/15 01:23:45;;;;;;;0.00;0.00;;;;;;;;;;5089745;28;20036;-70
2022/12/15 01:26:11;;;;;;;0.00;0.00;;;;;;;;;;5108519;28;20894;-70
2022/12/15 01:28:38;;;;;;;0.00;0.00;;;;;;;;;;5104084;28;20066;-69
2022/12/15 01:31:11;;;;;;;0.00;0.00;;;;;;;;;;5106295;28;20469;-68
2022/12/15 01:33:38;;;;;;;0.00;0.00;;;;;;;;;;5107916;28;20053;-68
2022/12/15 01:36:04;;;;;;;0.00;0.00;;;;;;;;;;5112290;28;20399;-70
2022/12/15 01:38:30;;;;;;;0.00;0.00;;;;;;;;;;5132283;28;20035;-69
2022/12/15 01:41:07;;;;;;;0.00;0.00;;;;;;;;;;5109438;28;20508;-69
2022/12/15 01:43:34;;;;;;;0.10;0.10;;;;;;;;;;5131397;27;20019;-69
2022/12/15 01:46:20;;;;;;;0.10;0.10;;;;;;;;;;5115825;27;20019;-70
2022/12/15 01:48:49;;;;;;;0.00;0.00;;;;;;;;;;5134510;27;20123;-68
2022/12/15 01:51:22;;;;;;;0.10;0.10;;;;;;;;;;5142488;27;20023;-68
2022/12/15 01:53:57;;;;;;;0.00;0.00;;;;;;;;;;5110656;27;20077;-68
2022/12/15 01:56:25;;;;;;;0.07;0.07;;;;;;;;;;5114489;27;20071;-68
2022/12/15 01:58:53;;;;;;;0.00;0.00;;;;;;;;;;5116128;27;20023;-68
2022/12/15 02:01:19;;;;;;;0.00;0.00;;;;;;;;;;5114158;27;20015;-67
2022/12/15 02:03:47;;;;;;;0.00;0.00;;;;;;;;;;5109850;27;20028;-68
2022/12/15 02:06:13;;;;;;;0.00;0.00;;;;;;;;;;5123958;27;20118;-68
2022/12/15 02:08:40;;;;;;;0.10;0.10;;;;;;;;;;5135160;27;20570;-68
2022/12/15 02:11:27;;;;;;;0.00;0.00;;;;;;;;;;5139594;27;20026;-69
2022/12/15 02:13:59;;;;;;;0.00;0.00;;;;;;;;;;5098429;28;20062;-68
2022/12/15 02:16:49;;;;;;;0.00;0.00;;;;;;;;;;5147002;27;20023;-68
2022/12/15 02:19:27;;;;;;;0.00;0.00;;;;;;;;;;5108893;27;20085;-68
2022/12/15 02:21:59;;;;;;;0.00;0.00;;;;;;;;;;5110533;27;20031;-68
2022/12/15 02:24:38;;;;;;;0.00;0.00;;;;;;;;;;5097244;28;20114;-68
2022/12/15 02:27:13;;;;;;;0.00;0.00;;;;;;;;;;5129133;27;20419;-70
2022/12/15 02:29:58;;;;;;;0.10;0.10;;;;;;;;;;5097062;28;20031;-69
2022/12/15 02:32:27;;;;;;;0.00;0.00;;;;;;;;;;5133580;27;20106;-69
2022/12/15 02:34:55;;;;;;;0.00;0.00;;;;;;;;;;5132625;27;20150;-69
2022/12/15 02:37:28;;;;;;;0.00;0.00;;;;;;;;;;5101435;27;20368;-69
2022/12/15 02:39:55;;;;;;;0.10;0.10;;;;;;;;;;5102561;28;20023;-69
2022/12/15 02:42:21;;;;;;;0.00;0.00;;;;;;;;;;5103359;27;20382;-70
2022/12/15 02:44:53;;;;;;;0.00;0.00;;;;;;;;;;5128315;27;20027;-71
2022/12/15 02:47:38;;;;;;;0.00;0.00;;;;;;;;;;5097264;27;20126;-71
2022/12/15 02:50:23;;;;;;;0.00;0.00;;;;;;;;;;5104370;27;20110;-69
2022/12/15 02:53:08;;;;;;;0.00;0.00;;;;;;;;;;5101129;27;20042;-70
2022/12/15 02:55:37;;;;;;;0.00;0.00;;;;;;;;;;5109321;27;20035;-69
2022/12/15 02:58:09;;;;;;;0.00;0.00;;;;;;;;;;5123270;27;20042;-70
2022/12/15 03:00:42;;;;;;;0.00;0.00;;;;;;;;;;5112160;27;20067;-69
2022/12/15 03:03:09;;;;;;;0.00;0.00;;;;;;;;;;5128081;27;20074;-70
2022/12/15 03:05:35;;;;;;;0.00;0.00;;;;;;;;;;5134344;27;20027;-70
2022/12/15 03:08:01;;;;;;;0.00;0.00;;;;;;;;;;5110054;27;20031;-69
2022/12/15 03:10:28;;;;;;;0.00;0.00;;;;;;;;;;5112648;27;20066;-69
2022/12/15 03:12:54;;;;;;;0.00;0.00;;;;;;;;;;5107912;27;20054;-70
2022/12/15 03:15:21;;;;;;;0.03;0.03;;;;;;;;;;5120213;27;20499;-70
2022/12/15 03:17:47;;;;;;;0.00;0.00;;;;;;;;;;5128865;27;20033;-72
2022/12/15 03:20:14;;;;;;;0.00;0.00;;;;;;;;;;5125946;27;20042;-70
2022/12/15 03:22:41;;;;;;;0.00;0.00;;;;;;;;;;5123134;27;20019;-70
2022/12/15 03:25:07;;;;;;;0.00;0.00;;;;;;;;;;5119148;27;20020;-69
2022/12/15 03:27:34;;;;;;;0.00;0.00;;;;;;;;;;5124169;27;20077;-70
2022/12/15 03:30:01;;;;;;;0.00;0.00;;;;;;;;;;5124696;27;20583;-77
2022/12/15 03:32:28;;;;;;;0.00;0.00;;;;;;;;;;5133634;27;20031;-76
2022/12/15 03:34:54;;;;;;;0.00;0.00;;;;;;;;;;5114843;27;20050;-76
2022/12/15 03:37:20;;;;;;;0.00;0.00;;;;;;;;;;5130679;27;20058;-76
2022/12/15 03:39:46;;;;;;;0.00;0.00;;;;;;;;;;5117393;27;20027;-78
2022/12/15 03:42:13;;;;;;;0.00;0.00;;;;;;;;;;5131622;27;20088;-83
2022/12/15 03:44:39;;;;;;;0.00;0.00;;;;;;;;;;5124711;27;20019;-80
2022/12/15 03:47:06;;;;;;;0.00;0.00;;;;;;;;;;5128175;27;20031;-77
2022/12/15 03:49:32;;;;;;;0.00;0.00;;;;;;;;;;5124142;27;20035;-79
2022/12/15 03:51:58;;;;;;;0.00;0.00;;;;;;;;;;5145291;27;20056;-77
2022/12/15 03:54:25;;;;;;;0.00;0.00;;;;;;;;;;5126952;27;20031;-79
2022/12/15 03:56:51;;;;;;;0.00;0.00;;;;;;;;;;5126436;27;20072;-79
2022/12/15 03:59:17;;;;;;;0.00;0.00;;;;;;;;;;5110884;27;20023;-80
2022/12/15 04:01:47;;;;;;;0.00;0.00;;;;;;;;;;5109284;27;20071;-84
2022/12/15 04:04:14;;;;;;;0.00;0.00;;;;;;;;;;5108977;27;20571;-79
2022/12/15 04:06:40;;;;;;;0.00;0.00;;;;;;;;;;5124285;27;20026;-80
2022/12/15 04:09:06;;;;;;;0.00;0.00;;;;;;;;;;5109095;27;20304;-80
2022/12/15 04:11:33;;;;;;;0.00;0.00;;;;;;;;;;5123490;27;20034;-79
2022/12/15 04:13:59;;;;;;;0.00;0.00;;;;;;;;;;5106071;27;20035;-80
2022/12/15 04:16:25;;;;;;;0.00;0.00;;;;;;;;;;5107094;27;20083;-79
2022/12/15 04:20:07;;;;;;;0.00;0.00;;;;;;;;;;5132096;27;20031;-81
2022/12/15 04:21:38;;;;;;;0.00;0.00;;;;;;;;;;5121828;27;20037;-82
2022/12/15 05:32:49;;;;;;;0.00;0.00;;;;;;;;;;5116065;27;20037;-71
2022/12/15 05:35:15;;;;;;;0.00;0.00;;;;;;;;;;5118164;27;20108;-72
2022/12/15 05:37:42;;;;;;;0.00;0.00;;;;;;;;;;5099912;27;20066;-78
2022/12/15 05:40:08;;;;;;;0.00;0.00;;;;;;;;;;5111990;27;20090;-71
2022/12/15 05:42:35;;;;;;;0.00;0.00;;;;;;;;;;5120336;27;20050;-71
2022/12/15 05:45:01;;;;;;;0.00;0.00;;;;;;;;;;5122044;27;20031;-71
2022/12/15 05:47:27;;;;;;;0.00;0.00;;;;;;;;;;5122455;27;20088;-71
2022/12/15 05:49:54;;;;;;;0.00;0.00;;;;;;;;;;5111352;27;20039;-71
2022/12/15 05:52:20;;;;;;;0.00;0.00;;;;;;;;;;5122817;27;20036;-71
2022/12/15 05:54:50;;;;;;;0.00;0.00;;;;;;;;;;5120461;27;20031;-71
2022/12/15 05:57:16;;;;;;;0.00;0.00;;;;;;;;;;5126386;27;20462;-71
2022/12/15 05:59:43;;;;;;;0.00;0.00;;;;;;;;;;5103766;27;20026;-70
2022/12/15 06:02:09;;;;;;;0.00;0.00;;;;;;;;;;5115840;27;20031;-71
2022/12/15 06:04:35;;;;;;;0.00;0.00;;;;;;;;;;5112328;27;20028;-69
2022/12/15 06:07:02;;;;;;;0.00;0.00;;;;;;;;;;5122490;27;20027;-70
2022/12/15 06:09:28;;;;;;;0.00;0.00;;;;;;;;;;5107916;27;20497;-69
2022/12/15 06:11:54;;;;;;;0.10;0.00;;;;;;;;;;5123007;27;20068;-69
2022/12/15 06:14:21;;;;;;;0.00;0.00;;;;;;;;;;5110156;27;20404;-70
2022/12/15 06:16:47;;;;;;;0.00;0.00;;;;;;;;;;5127306;27;20068;-70
2022/12/15 06:19:13;;;;;;;0.00;0.00;;;;;;;;;;5115066;27;20358;-69
2022/12/15 06:21:40;;;;;;;0.00;0.00;;;;;;;;;;5126494;27;20054;-69
2022/12/15 06:24:06;;;;;;;0.00;0.00;;;;;;;;;;5112993;27;20023;-69
2022/12/15 06:26:34;;;;;;;0.00;0.00;;;;;;;;;;5103337;27;20028;-69
2022/12/15 06:29:02;;;;;;;0.00;0.00;;;;;;;;;;5100352;27;20022;-69
2022/12/15 06:31:28;;;;;;;0.00;0.00;;;;;;;;;;5108595;27;20035;-72
2022/12/15 06:33:55;;;;;;;0.00;0.00;;;;;;;;;;5116524;27;20073;-72
2022/12/15 06:36:25;;;;;;;0.00;0.00;;;;;;;;;;5107741;27;20023;-72
2022/12/15 06:38:51;;;;;;;0.00;0.00;;;;;;;;;;5118119;27;20031;-72
2022/12/15 06:41:19;;;;;;;0.00;0.00;;;;;;;;;;5108256;27;20023;-72
2022/12/15 06:43:49;;;;;;;0.00;0.00;;;;;;;;;;5103825;27;20039;-72
2022/12/15 06:46:18;;;;;;;0.00;0.00;;;;;;;;;;5121541;27;20382;-72
2022/12/15 06:48:46;;;;;;;0.00;0.00;;;;;;;;;;5097699;27;20028;-72
2022/12/15 06:51:13;;;;;;;0.00;0.00;;;;;;;;;;5104273;27;20024;-72
2022/12/15 06:53:47;;;;;;;0.00;0.00;;;;;;;;;;5107101;27;20097;-72
2022/12/15 06:56:21;;;;;;;0.00;0.00;;;;;;;;;;5100592;27;20054;-72
2022/12/15 06:58:48;;;;;;;0.00;0.00;;;;;;;;;;5102672;27;20389;-73
2022/12/15 07:01:15;;;;;;;0.00;0.00;;;;;;;;;;5100611;27;20119;-74
2022/12/15 07:03:42;;;;;;;0.00;0.00;;;;;;;;;;5104308;27;20020;-75
2022/12/15 07:06:09;;;;;;;0.00;0.00;;;;;;;;;;5120904;27;20027;-74
2022/12/15 07:08:36;;;;;;;0.00;0.00;;;;;;;;;;5105877;27;20058;-73
2022/12/15 07:11:03;;;;;;;0.00;0.00;;;;;;;;;;5108707;27;20042;-75
2022/12/15 07:13:29;;;;;;;0.00;0.00;;;;;;;;;;5117215;27;20020;-75
2022/12/15 07:15:59;;;;;;;0.00;0.00;;;;;;;;;;5109677;27;20075;-73
2022/12/15 07:18:25;;;;;;;0.00;0.00;;;;;;;;;;5103058;27;20031;-74
2022/12/15 07:20:52;;;;;;;0.00;0.00;;;;;;;;;;5101359;27;20054;-71
2022/12/15 07:23:18;;;;;;;0.00;0.00;;;;;;;;;;5119452;27;20544;-73
2022/12/15 07:25:44;;;;;;;0.00;0.00;;;;;;;;;;5103965;27;20027;-73
2022/12/15 07:28:11;;;;;;;0.00;0.00;;;;;;;;;;5112935;27;20170;-72
2022/12/15 07:30:38;;;;;;;0.00;0.00;;;;;;;;;;5098090;27;21738;-73
2022/12/15 07:33:04;;;;;;;0.00;0.00;;;;;;;;;;5103642;27;20027;-73
2022/12/15 07:35:31;;;;;;;0.00;0.00;;;;;;;;;;5115423;27;20039;-72
2022/12/15 07:37:57;;;;;;;0.00;0.00;;;;;;;;;;5103683;27;20532;-71
2022/12/15 07:40:24;;;;;;;0.00;0.00;;;;;;;;;;5124265;27;20440;-72
2022/12/15 07:42:50;;;;;;;0.00;0.00;;;;;;;;;;5124984;27;20483;-71
2022/12/15 07:45:16;;;;;;;0.00;0.00;;;;;;;;;;5100224;27;20035;-72
2022/12/15 07:47:42;;;;;;;0.00;0.00;;;;;;;;;;5124691;27;20038;-71
2022/12/15 07:50:09;;;;;;;0.00;0.00;;;;;;;;;;5121464;27;20023;-74
2022/12/15 07:52:35;;;;;;;0.00;0.00;;;;;;;;;;5101184;27;20548;-74
2022/12/15 07:55:01;;;;;;;0.00;0.00;;;;;;;;;;5108132;27;20023;-74
2022/12/15 07:57:28;;;;;;;0.00;0.00;;;;;;;;;;5122152;27;20026;-75
2022/12/15 07:59:54;;;;;;;0.00;0.00;;;;;;;;;;5125200;27;20051;-75
2022/12/15 08:02:21;;;;;;;0.00;0.00;;;;;;;;;;5106100;27;20029;-74
2022/12/15 08:04:47;;;;;;;0.00;0.00;;;;;;;;;;5109518;27;20019;-75
2022/12/15 08:07:13;;;;;;;0.00;0.00;;;;;;;;;;5108519;27;20031;-76
2022/12/15 08:09:40;;;;;;;0.00;0.00;;;;;;;;;;5128546;27;20035;-75
2022/12/15 08:12:09;;;;;;;0.00;0.00;;;;;;;;;;5132263;27;20029;-75
2022/12/15 08:14:39;;;;;;;0.00;0.00;;;;;;;;;;5105752;27;20477;-73
2022/12/15 08:17:05;;;;;;;0.00;0.00;;;;;;;;;;5119792;27;20110;-74
2022/12/15 08:19:31;;;;;;;0.00;0.00;;;;;;;;;;5118175;27;20039;-75
2022/12/15 08:21:58;;;;;;;0.00;0.00;;;;;;;;;;5123826;27;20024;-76
2022/12/15 08:24:27;;;;;;;0.00;0.00;;;;;;;;;;5125131;27;20035;-75
2022/12/15 08:26:53;;;;;;;0.00;0.00;;;;;;;;;;5126116;27;20027;-74
2022/12/15 08:29:19;;;;;;;0.00;0.00;;;;;;;;;;5105124;27;20043;-75
2022/12/15 08:31:48;;;;;;;0.00;0.00;;;;;;;;;;5109033;28;20386;-76
2022/12/15 08:34:14;;;;;;;0.00;0.00;;;;;;;;;;5106513;28;20019;-72
2022/12/15 08:36:43;;;;;;;0.00;0.00;;;;;;;;;;5121107;27;20118;-70
2022/12/15 08:39:10;;;;;;;0.00;0.00;;;;;;;;;;5118965;27;20492;-71
2022/12/15 08:41:36;;;;;;;0.00;0.00;;;;;;;;;;5121194;27;20028;-70
2022/12/15 08:44:03;;;;;;;0.00;0.00;;;;;;;;;;5132479;27;20016;-70
2022/12/15 08:46:32;;;;;;;0.00;0.00;;;;;;;;;;5127269;27;20099;-72
2022/12/15 08:48:59;;;;;;;0.00;0.00;;;;;;;;;;5120417;27;20072;-71
2022/12/15 08:51:27;;;;;;;0.00;0.00;;;;;;;;;;5105376;28;20114;-71
2022/12/15 08:53:54;;;;;;;0.00;0.00;;;;;;;;;;5106370;27;20062;-69
2022/12/15 08:56:21;;;;;;;0.00;0.00;;;;;;;;;;5103025;27;20035;-70
2022/12/15 08:58:48;;;;;;;0.00;0.00;;;;;;;;;;5126675;27;20061;-69
2022/12/15 09:01:16;;;;;;;0.00;0.00;;;;;;;;;;5101813;27;20035;-69
2022/12/15 09:03:43;;;;;;;0.00;0.00;;;;;;;;;;5105269;27;20023;-69
2022/12/15 09:06:16;;;;;;;0.00;0.00;;;;;;;;;;5109085;27;20027;-71
2022/12/15 09:08:43;;;;;;;0.00;0.00;;;;;;;;;;5110870;27;20042;-69
2022/12/15 09:11:09;;;;;;;0.00;0.00;;;;;;;;;;5122660;27;20086;-72
2022/12/15 09:13:35;;;;;;;0.00;0.00;;;;;;;;;;5102876;27;20023;-69
2022/12/15 09:16:07;;;;;;;0.00;0.00;;;;;;;;;;5102235;27;20023;-70
2022/12/15 09:18:33;;;;;;;0.00;0.00;;;;;;;;;;5126598;27;20034;-70
2022/12/15 09:21:02;;;;;;;0.00;0.00;;;;;;;;;;5130881;27;20019;-70
2022/12/15 09:23:28;;;;;;;0.00;0.00;;;;;;;;;;5117150;27;20361;-69
2022/12/15 09:26:04;;;;;;;0.00;0.00;;;;;;;;;;5129023;27;20019;-70
2022/12/15 09:28:30;;;;;;;0.00;0.00;;;;;;;;;;5125580;27;20039;-70
2022/12/15 09:31:04;;;;;;;0.00;0.00;;;;;;;;;;5127851;27;20019;-70
2022/12/15 09:33:30;;;;;;;0.00;0.00;;;;;;;;;;5106380;27;20054;-70
2022/12/15 09:35:57;;;;;;;0.00;0.00;;;;;;;;;;5119124;27;20038;-70
2022/12/15 09:38:23;;;;;;;0.00;0.00;;;;;;;;;;5121005;27;20047;-69
2022/12/15 09:40:49;;;;;;;0.00;0.00;;;;;;;;;;5104333;27;20571;-71
2022/12/15 09:43:17;;;;;;;0.00;0.00;;;;;;;;;;5121030;27;20064;-72
2022/12/15 09:46:00;;;;;;;0.00;0.00;;;;;;;;;;5099613;27;20023;-70
2022/12/15 09:48:29;;;;;;;0.00;0.00;;;;;;;;;;5103058;27;20034;-69
2022/12/15 09:50:56;;;;;;;0.00;0.00;;;;;;;;;;5122339;27;20029;-70
2022/12/15 09:53:24;;;;;;;0.00;0.00;;;;;;;;;;5121377;27;20392;-69
2022/12/15 09:55:55;;;;;;;0.00;0.00;;;;;;;;;;5123932;27;20075;-72
2022/12/15 09:58:40;;;;;;;0.00;0.00;;;;;;;;;;5129173;27;20035;-71
2022/12/15 10:01:32;;;;;;;0.00;0.00;;;;;;;;;;5126261;27;20434;-71
2022/12/15 10:03:58;;;;;;;0.00;0.00;;;;;;;;;;5113763;27;20622;-71
2022/12/15 10:06:40;;;;;;;0.00;0.00;;;;;;;;;;5107202;27;20031;-72
2022/12/15 10:09:18;;;;;;;0.00;0.00;;;;;;;;;;5122362;27;20099;-69
2022/12/15 10:12:10;;;;;;;0.00;0.00;;;;;;;;;;5103259;27;20066;-68
2022/12/15 10:14:39;;;;;;;0.00;0.00;;;;;;;;;;5102061;27;20074;-72
2022/12/15 10:17:25;;;;;;;0.00;0.00;;;;;;;;;;5104311;27;20047;-72
2022/12/15 10:19:57;;;;;;;0.00;0.00;;;;;;;;;;5108054;27;20027;-70
2022/12/15 10:22:25;;;;;;;0.00;0.00;;;;;;;;;;5129116;27;20023;-69
2022/12/15 10:24:53;;;;;;;0.00;0.00;;;;;;;;;;5106184;27;20047;-70
2022/12/15 10:27:36;;;;;;;0.00;0.00;;;;;;;;;;5101081;27;20023;-69
2022/12/15 10:30:04;;;;;;;0.00;0.00;;;;;;;;;;5114155;27;21430;-74
2022/12/15 10:32:52;;;;;;;0.00;0.00;;;;;;;;;;5121106;27;20046;-69
2022/12/15 10:35:32;;;;;;;0.00;0.00;;;;;;;;;;5110391;27;20030;-68
2022/12/15 10:37:59;;;;;;;0.00;0.00;;;;;;;;;;5107024;27;20054;-70
2022/12/15 10:40:45;;;;;;;0.00;0.00;;;;;;;;;;5110119;27;20114;-70
2022/12/15 10:43:21;;;;;;;0.00;0.00;;;;;;;;;;5121501;27;20114;-70
2022/12/15 10:45:49;;;;;;;0.00;0.00;;;;;;;;;;5117788;27;20098;-70
2022/12/15 10:48:19;;;;;;;0.00;0.00;;;;;;;;;;5107408;27;20035;-70
2022/12/15 10:50:46;;;;;;;0.00;0.00;;;;;;;;;;5128327;27;20031;-70
2022/12/15 10:53:31;;;;;;;0.00;0.00;;;;;;;;;;5119402;27;20071;-69
2022/12/15 10:56:00;;;;;;;0.00;0.00;;;;;;;;;;5123396;27;20032;-68
2022/12/15 10:58:27;;;;;;;0.00;0.00;;;;;;;;;;5104359;27;20038;-68
2022/12/15 11:01:16;;;;;;;0.00;0.00;;;;;;;;;;5121709;27;20062;-74
2022/12/15 11:03:43;;;;;;;0.00;0.00;;;;;;;;;;5118675;27;20067;-71
2022/12/15 11:06:29;;;;;;;0.00;0.00;;;;;;;;;;5102616;27;20027;-72
2022/12/15 11:08:56;;;;;;;0.00;0.00;;;;;;;;;;5109557;27;20156;-70
2022/12/15 11:14:15;;;;;;;0.00;0.00;;;;;;;;;;5120496;27;20042;-74
2022/12/15 11:16:52;;;;;;;0.00;0.00;;;;;;;;;;5119255;27;20028;-69
2022/12/15 11:19:37;;;;;;;0.00;0.00;;;;;;;;;;5121520;27;20035;-68
2022/12/15 11:22:06;;;;;;;0.00;0.00;;;;;;;;;;5117680;27;20020;-71
2022/12/15 11:24:40;;;;;;;0.00;0.00;;;;;;;;;;5100624;27;20114;-67
2022/12/15 11:27:13;;;;;;;0.00;0.00;;;;;;;;;;5102748;27;20056;-68
2022/12/15 11:30:15;;;;;;;0.00;0.00;;;;;;;;;;5118828;27;20031;-68
2022/12/15 11:32:43;;;;;;;0.00;0.00;;;;;;;;;;5017212;28;20058;-69
2022/12/15 11:35:19;;;;;;;0.00;0.00;;;;;;;;;;5086863;27;20472;-69
2022/12/15 11:38:05;;;;;;;0.00;0.00;;;;;;;;;;5090000;27;20044;-70
2022/12/15 11:40:39;;;;;;;0.00;0.00;;;;;;;;;;5050937;28;20040;-71
2022/12/15 11:43:23;;;;;;;0.00;0.00;;;;;;;;;;5085833;28;20028;-70
2022/12/15 11:46:08;;;;;;;0.00;0.00;;;;;;;;;;5066383;28;20038;-70
2022/12/15 11:48:43;;;;;;;0.00;0.00;;;;;;;;;;5081584;28;20032;-70
2022/12/15 11:51:29;;;;;;;0.00;0.00;;;;;;;;;;5082360;28;20474;-69
2022/12/15 11:54:03;;;;;;;0.00;0.00;;;;;;;;;;5080091;28;20099;-69
2022/12/15 11:56:42;;;;;;;0.00;0.00;;;;;;;;;;5079164;28;20031;-72
2022/12/15 11:59:28;;;;;;;0.00;0.00;;;;;;;;;;5083611;28;20117;-70
2022/12/15 12:02:09;;;;;;;0.00;0.00;;;;;;;;;;5081079;28;20017;-71
2022/12/15 12:04:41;;;;;;;0.00;0.00;;;;;;;;;;5080328;28;20024;-71
2022/12/15 12:07:11;;;;;;;0.00;0.00;;;;;;;;;;5062739;28;20058;-71
2022/12/15 12:09:56;;;;;;;0.00;0.00;;;;;;;;;;5069402;28;20094;-72
2022/12/15 12:12:25;;;;;;;0.00;0.00;;;;;;;;;;5060393;28;20028;-71
2022/12/15 12:14:55;;;;;;;0.00;0.00;;;;;;;;;;5081011;28;20490;-70
2022/12/15 12:17:21;;;;;;;0.00;0.00;;;;;;;;;;5078839;28;20106;-70
2022/12/15 12:20:01;;;;;;;0.00;0.00;;;;;;;;;;5092225;28;20059;-72
2022/12/15 12:22:32;;;;;;;0.00;0.00;;;;;;;;;;5092375;28;20105;-70
2022/12/15 12:25:00;;;;;;;0.00;0.00;;;;;;;;;;5084521;28;20024;-70
2022/12/15 12:27:42;;;;;;;0.00;0.00;;;;;;;;;;5064464;28;20032;-69
2022/12/15 12:30:13;;;;;;;0.00;0.00;;;;;;;;;;5064938;28;20035;-71
2022/12/15 12:32:46;;;;;;;0.00;0.00;;;;;;;;;;5079421;28;20032;-71
2022/12/15 12:35:24;;;;;;;0.00;0.00;;;;;;;;;;5057989;28;20036;-70
2022/12/15 12:37:52;;;;;;;0.00;0.00;;;;;;;;;;5080945;28;20036;-70
2022/12/15 12:40:32;;;;;;;0.00;0.00;;;;;;;;;;5083895;28;20479;-70
2022/12/15 12:42:58;;;;;;;0.00;0.00;;;;;;;;;;5099560;28;20474;-70
2022/12/15 12:45:48;;;;;;;0.00;0.00;;;;;;;;;;5079886;28;20039;-69
2022/12/15 12:48:24;;;;;;;0.00;0.00;;;;;;;;;;5056663;28;20129;-70
2022/12/15 12:50:51;;;;;;;0.00;0.00;;;;;;;;;;5099749;28;20038;-69
2022/12/15 12:53:25;;;;;;;0.00;0.00;;;;;;;;;;5098764;28;20031;-69
2022/12/15 12:55:52;;;;;;;0.00;0.00;;;;;;;;;;5080408;28;20032;-72
2022/12/15 12:58:31;;;;;;;0.00;0.00;;;;;;;;;;5086528;28;20062;-72
2022/12/15 13:01:10;;;;;;;0.00;0.00;;;;;;;;;;5081332;28;20028;-69
2022/12/15 13:03:40;;;;;;;0.00;0.00;;;;;;;;;;5091723;28;20161;-71
2022/12/15 13:06:41;;;;;;;0.00;0.00;;;;;;;;;;5103230;28;20050;-71
2022/12/15 13:09:18;;;;;;;0.00;0.00;;;;;;;;;;5099444;28;20055;-70
2022/12/15 13:11:54;;;;;;;0.00;0.00;;;;;;;;;;5098223;28;20027;-70
2022/12/15 13:14:23;;;;;;;0.00;0.00;;;;;;;;;;5101422;28;20106;-70
2022/12/15 13:16:55;;;;;;;0.00;0.00;;;;;;;;;;5101547;28;20052;-69
2022/12/15 13:19:40;;;;;;;0.00;0.00;;;;;;;;;;5103097;28;20042;-70
2022/12/15 13:22:22;;;;;;;0.00;0.00;;;;;;;;;;5086568;28;20098;-69
2022/12/15 13:24:50;;;;;;;0.00;0.00;;;;;;;;;;5094537;28;20114;-71
2022/12/15 13:27:18;;;;;;;0.00;0.00;;;;;;;;;;5101355;28;20077;-70
2022/12/15 13:30:03;;;;;;;0.00;0.00;;;;;;;;;;5094531;28;21854;-70
2022/12/15 13:32:29;;;;;;;0.00;0.00;;;;;;;;;;5106978;28;20031;-71
2022/12/15 13:34:56;;;;;;;0.00;0.00;;;;;;;;;;5090934;28;20485;-69
2022/12/15 13:37:44;;;;;;;0.00;0.00;;;;;;;;;;5110816;28;20482;-70
2022/12/15 13:40:23;;;;;;;0.00;0.00;;;;;;;;;;5110934;28;20023;-69
2022/12/15 13:43:04;;;;;;;0.00;0.00;;;;;;;;;;5090456;28;20039;-70
2022/12/15 13:45:37;;;;;;;0.00;0.00;;;;;;;;;;5094137;28;20089;-69
2022/12/15 13:48:13;;;;;;;0.00;0.00;;;;;;;;;;5107557;28;20119;-70
2022/12/15 13:50:48;;;;;;;0.00;0.00;;;;;;;;;;5082415;28;20486;-71
2022/12/15 13:53:20;;;;;;;0.00;0.00;;;;;;;;;;5095109;28;20051;-70
2022/12/15 13:56:07;;;;;;;0.00;0.00;;;;;;;;;;5095919;28;20515;-70
2022/12/15 13:58:39;;;;;;;0.00;0.00;;;;;;;;;;5053448;28;20044;-70
2022/12/15 14:01:17;;;;;;;0.00;0.00;;;;;;;;;;5108046;27;20058;-70
2022/12/15 14:03:56;;;;;;;0.00;0.00;;;;;;;;;;5094615;27;20038;-70
2022/12/15 14:06:23;;;;;;;0.00;0.00;;;;;;;;;;5083991;28;20043;-70
2022/12/15 14:08:50;;;;;;;0.00;0.00;;;;;;;;;;5083140;28;20023;-69
2022/12/15 14:11:28;;;;;;;0.00;0.00;;;;;;;;;;5112349;27;20105;-69
2022/12/15 14:13:58;;;;;;;0.00;0.00;;;;;;;;;;5109058;28;20492;-70
2022/12/15 14:16:25;;;;;;;0.00;0.00;;;;;;;;;;5104877;27;20111;-69
2022/12/15 14:19:10;;;;;;;0.00;0.00;;;;;;;;;;5108178;27;20027;-70
2022/12/15 14:21:36;;;;;;;0.00;0.00;;;;;;;;;;5094801;28;20024;-70
2022/12/15 14:24:15;;;;;;;0.00;0.00;;;;;;;;;;5094809;28;20867;-69
2022/12/15 14:26:41;;;;;;;0.00;0.00;;;;;;;;;;5104524;28;20024;-73
2022/12/15 14:29:10;;;;;;;0.00;0.00;;;;;;;;;;5105994;28;20096;-69
2022/12/15 14:31:37;;;;;;;0.00;0.00;;;;;;;;;;5108866;27;20031;-69
2022/12/15 14:34:08;;;;;;;0.00;0.00;;;;;;;;;;5091677;28;20032;-69
2022/12/15 14:36:35;;;;;;;0.00;0.00;;;;;;;;;;5093668;27;20046;-70
2022/12/15 14:39:06;;;;;;;0.00;0.00;;;;;;;;;;5111881;27;20504;-69
2022/12/15 14:41:36;;;;;;;0.00;0.00;;;;;;;;;;5088371;28;20038;-69
2022/12/15 14:44:08;;;;;;;0.00;0.00;;;;;;;;;;5083093;28;20028;-70
2022/12/15 14:46:34;;;;;;;0.00;0.00;;;;;;;;;;5090505;28;20032;-69
2022/12/15 14:49:02;;;;;;;0.00;0.00;;;;;;;;;;5100954;28;20031;-70
2022/12/15 14:51:29;;;;;;;0.00;0.00;;;;;;;;;;5106632;27;20039;-71
2022/12/15 14:53:56;;;;;;;0.00;0.00;;;;;;;;;;5084294;28;20039;-70
2022/12/15 14:56:22;;;;;;;0.00;0.00;;;;;;;;;;5108630;27;20028;-70
2022/12/15 14:58:58;;;;;;;0.00;0.00;;;;;;;;;;5093929;28;20059;-68
2022/12/15 15:01:38;;;;;;;0.00;0.00;;;;;;;;;;5093416;28;20028;-69
2022/12/15 15:04:06;;;;;;;0.00;0.00;;;;;;;;;;5115605;27;20030;-70
2022/12/15 15:06:34;;;;;;;0.00;0.00;;;;;;;;;;5098989;28;20525;-70
2022/12/15 15:09:12;;;;;;;0.00;0.00;;;;;;;;;;5101774;27;20489;-70
2022/12/15 15:11:40;;;;;;;0.00;0.00;;;;;;;;;;5109848;27;20059;-71
2022/12/15 15:14:14;;;;;;;0.00;0.00;;;;;;;;;;5105202;28;20482;-69
2022/12/15 15:16:41;;;;;;;0.00;0.00;;;;;;;;;;5106770;28;20019;-69
2022/12/15 15:19:07;;;;;;;0.00;0.00;;;;;;;;;;5088241;28;20031;-70
2022/12/15 15:21:36;;;;;;;0.00;0.00;;;;;;;;;;5093672;28;20027;-70
2022/12/15 15:24:02;;;;;;;0.00;0.00;;;;;;;;;;5093786;27;20032;-70
2022/12/15 15:26:29;;;;;;;0.00;0.00;;;;;;;;;;5112020;27;20456;-70
2022/12/15 15:28:56;;;;;;;0.00;0.00;;;;;;;;;;5092235;28;20108;-71
2022/12/15 15:31:27;;;;;;;0.00;0.00;;;;;;;;;;5092989;28;20032;-69
2022/12/15 15:33:56;;;;;;;0.00;0.00;;;;;;;;;;5090929;28;20031;-69
2022/12/15 15:36:23;;;;;;;0.00;0.00;;;;;;;;;;5088549;28;20751;-69
2022/12/15 15:38:50;;;;;;;0.00;0.00;;;;;;;;;;5089907;28;20036;-70
2022/12/15 15:41:37;;;;;;;0.00;0.00;;;;;;;;;;5105530;28;20051;-69
2022/12/15 15:44:09;;;;;;;0.00;0.00;;;;;;;;;;5108610;27;20050;-69
2022/12/15 15:46:38;;;;;;;0.00;0.00;;;;;;;;;;5092897;28;20614;-69
2022/12/15 15:49:07;;;;;;;0.00;0.00;;;;;;;;;;5093714;28;20161;-71
2022/12/15 15:51:34;;;;;;;0.00;0.00;;;;;;;;;;5098927;28;20546;-71
2022/12/15 15:54:20;;;;;;;0.00;0.00;;;;;;;;;;5106957;27;20102;-69
2022/12/15 15:56:47;;;;;;;0.00;0.00;;;;;;;;;;5103212;28;20474;-72
2022/12/15 15:59:15;;;;;;;0.00;0.00;;;;;;;;;;5108162;28;21058;-71
2022/12/15 16:01:41;;;;;;;0.00;0.00;;;;;;;;;;5095603;27;20088;-70
2022/12/15 16:04:08;;;;;;;0.00;0.00;;;;;;;;;;5111316;27;20047;-73
2022/12/15 16:06:35;;;;;;;0.00;0.00;;;;;;;;;;5108888;27;20045;-72
2022/12/15 16:09:01;;;;;;;0.00;0.00;;;;;;;;;;5110805;27;20024;-70
2022/12/15 16:11:29;;;;;;;0.00;0.00;;;;;;;;;;5090063;28;20036;-70
2022/12/15 16:13:56;;;;;;;0.00;0.00;;;;;;;;;;5109162;27;20019;-70
2022/12/15 16:16:24;;;;;;;0.00;0.00;;;;;;;;;;5113051;27;20358;-71
2022/12/15 16:18:50;;;;;;;0.00;0.00;;;;;;;;;;5094560;28;20050;-73
2022/12/15 16:21:17;;;;;;;0.00;0.00;;;;;;;;;;5111959;28;20031;-72
2022/12/15 16:23:44;;;;;;;0.00;0.00;;;;;;;;;;5112211;28;20024;-70
2022/12/15 16:26:15;;;;;;;0.00;0.00;;;;;;;;;;5092286;28;20024;-72
2022/12/15 16:28:41;;;;;;;0.00;0.00;;;;;;;;;;5110349;28;20462;-72
2022/12/15 16:31:11;;;;;;;0.00;0.00;;;;;;;;;;5111155;28;20557;-73
2022/12/15 16:33:37;;;;;;;0.00;0.00;;;;;;;;;;5113985;27;20020;-73
2022/12/15 16:36:10;;;;;;;0.00;0.00;;;;;;;;;;5115244;27;20381;-75
2022/12/15 16:38:36;;;;;;;0.00;0.00;;;;;;;;;;5108609;28;20078;-73
2022/12/15 16:41:07;;;;;;;0.00;0.00;;;;;;;;;;5089032;28;20016;-74
2022/12/15 16:43:33;;;;;;;0.00;0.00;;;;;;;;;;5089920;28;20538;-74
2022/12/15 16:46:00;;;;;;;0.00;0.00;;;;;;;;;;5094048;28;20504;-74
2022/12/15 16:48:26;;;;;;;0.00;0.00;;;;;;;;;;5107303;28;20020;-72
2022/12/15 16:50:54;;;;;;;0.00;0.00;;;;;;;;;;5086109;28;20026;-73
2022/12/15 16:53:22;;;;;;;0.00;0.00;;;;;;;;;;5104861;28;20046;-73
2022/12/15 16:55:51;;;;;;;0.00;0.00;;;;;;;;;;5083717;28;20035;-72
2022/12/15 16:58:17;;;;;;;0.00;0.00;;;;;;;;;;5112844;28;20019;-72
2022/12/15 17:00:44;;;;;;;0.00;0.00;;;;;;;;;;5106921;28;20085;-71
2022/12/15 17:03:12;;;;;;;0.00;0.00;;;;;;;;;;5104202;28;20027;-71
2022/12/15 17:05:38;;;;;;;0.00;0.00;;;;;;;;;;5096893;28;20213;-72
2022/12/15 17:08:06;;;;;;;0.00;0.00;;;;;;;;;;5074588;28;20034;-74
2022/12/15 17:10:32;;;;;;;0.00;0.00;;;;;;;;;;5080467;28;20058;-72
2022/12/15 17:13:17;;;;;;;0.00;0.00;;;;;;;;;;5089283;28;20080;-72
2022/12/15 17:15:44;;;;;;;0.00;0.00;;;;;;;;;;5109812;28;20023;-70
2022/12/15 17:18:12;;;;;;;0.00;0.00;;;;;;;;;;5083523;28;20454;-71
2022/12/15 17:20:38;;;;;;;0.00;0.00;;;;;;;;;;5084748;28;20049;-71
2022/12/15 17:23:07;;;;;;;0.00;0.00;;;;;;;;;;5087708;28;20016;-71